sensor_id;sensor_type;location;lat;lon;timestamp;P1;durP1;ratioP1;P2;durP2;ratioP2
46745;SDS011;32493;50.514;9.678;2023-12-28T00:01:03;4.00;;;2.00;;
46745;SDS011;32493;50.514;9.678;2023-12-28T00:03:09;3.20;;;1.80;;
46745;SDS011;32493;50.514;9.678;2023-12-28T00:05:15;3.60;;;1.65;;
46745;SDS011;32493;50.514;9.678;2023-12-28T00:07:23;4.13;;;2.03;;
46745;SDS011;32493;50.514;9.678;2023-12-28T00:11:34;3.90;;;1.58;;
46745;SDS011;32493;50.514;9.678;2023-12-28T00:13:40;3.60;;;1.52;;
46745;SDS011;32493;50.514;9.678;2023-12-28T00:15:46;2.53;;;1.95;;
46745;SDS011;32493;50.514;9.678;2023-12-28T00:17:57;3.17;;;1.60;;
46745;SDS011;32493;50.514;9.678;2023-12-28T00:20:09;2.97;;;1.70;;
46745;SDS011;32493;50.514;9.678;2023-12-28T00:22:15;2.95;;;1.58;;
46745;SDS011;32493;50.514;9.678;2023-12-28T00:24:23;6.57;;;1.88;;
46745;SDS011;32493;50.514;9.678;2023-12-28T00:26:29;3.70;;;2.05;;
46745;SDS011;32493;50.514;9.678;2023-12-28T00:28:37;5.38;;;1.85;;
46745;SDS011;32493;50.514;9.678;2023-12-28T00:30:48;4.32;;;2.58;;
46745;SDS011;32493;50.514;9.678;2023-12-28T00:33:02;7.13;;;2.33;;
46745;SDS011;32493;50.514;9.678;2023-12-28T00:35:08;8.50;;;2.42;;
46745;SDS011;32493;50.514;9.678;2023-12-28T00:37:14;3.30;;;1.88;;
46745;SDS011;32493;50.514;9.678;2023-12-28T00:39:23;7.15;;;2.22;;
46745;SDS011;32493;50.514;9.678;2023-12-28T00:41:31;4.22;;;2.38;;
46745;SDS011;32493;50.514;9.678;2023-12-28T00:43:36;4.47;;;2.15;;
46745;SDS011;32493;50.514;9.678;2023-12-28T00:45:41;4.65;;;2.28;;
46745;SDS011;32493;50.514;9.678;2023-12-28T00:48:02;3.63;;;2.20;;
46745;SDS011;32493;50.514;9.678;2023-12-28T00:50:11;5.85;;;2.35;;
46745;SDS011;32493;50.514;9.678;2023-12-28T00:52:20;4.28;;;2.08;;
46745;SDS011;32493;50.514;9.678;2023-12-28T00:54:28;5.63;;;2.47;;
46745;SDS011;32493;50.514;9.678;2023-12-28T00:56:33;4.30;;;2.13;;
46745;SDS011;32493;50.514;9.678;2023-12-28T00:58:38;4.63;;;2.50;;
46745;SDS011;32493;50.514;9.678;2023-12-28T01:00:50;4.70;;;2.30;;
46745;SDS011;32493;50.514;9.678;2023-12-28T01:03:05;6.70;;;2.55;;
46745;SDS011;32493;50.514;9.678;2023-12-28T01:05:11;7.40;;;2.80;;
46745;SDS011;32493;50.514;9.678;2023-12-28T01:07:18;5.17;;;2.47;;
46745;SDS011;32493;50.514;9.678;2023-12-28T01:09:21;4.28;;;2.13;;
46745;SDS011;32493;50.514;9.678;2023-12-28T01:11:31;6.50;;;2.13;;
46745;SDS011;32493;50.514;9.678;2023-12-28T01:13:38;7.35;;;2.83;;
46745;SDS011;32493;50.514;9.678;2023-12-28T01:15:43;3.20;;;1.80;;
46745;SDS011;32493;50.514;9.678;2023-12-28T01:17:49;2.72;;;1.75;;
46745;SDS011;32493;50.514;9.678;2023-12-28T01:19:58;4.78;;;1.90;;
46745;SDS011;32493;50.514;9.678;2023-12-28T01:22:11;4.70;;;2.25;;
46745;SDS011;32493;50.514;9.678;2023-12-28T01:24:17;5.88;;;2.55;;
46745;SDS011;32493;50.514;9.678;2023-12-28T01:26:23;4.25;;;2.22;;
46745;SDS011;32493;50.514;9.678;2023-12-28T01:28:33;3.67;;;2.35;;
46745;SDS011;32493;50.514;9.678;2023-12-28T01:30:42;6.05;;;2.67;;
46745;SDS011;32493;50.514;9.678;2023-12-28T01:32:55;5.18;;;2.30;;
46745;SDS011;32493;50.514;9.678;2023-12-28T01:35:01;3.13;;;2.17;;
46745;SDS011;32493;50.514;9.678;2023-12-28T01:37:08;7.85;;;2.10;;
46745;SDS011;32493;50.514;9.678;2023-12-28T01:39:14;4.18;;;2.00;;
46745;SDS011;32493;50.514;9.678;2023-12-28T01:41:23;5.65;;;3.20;;
46745;SDS011;32493;50.514;9.678;2023-12-28T01:43:37;4.97;;;2.22;;
46745;SDS011;32493;50.514;9.678;2023-12-28T01:45:43;4.22;;;2.20;;
46745;SDS011;32493;50.514;9.678;2023-12-28T01:47:49;3.63;;;2.15;;
46745;SDS011;32493;50.514;9.678;2023-12-28T01:50:00;4.47;;;1.98;;
46745;SDS011;32493;50.514;9.678;2023-12-28T01:52:11;3.75;;;2.33;;
46745;SDS011;32493;50.514;9.678;2023-12-28T01:54:18;3.97;;;2.25;;
46745;SDS011;32493;50.514;9.678;2023-12-28T01:56:24;4.70;;;1.95;;
46745;SDS011;32493;50.514;9.678;2023-12-28T01:58:30;2.83;;;1.90;;
46745;SDS011;32493;50.514;9.678;2023-12-28T02:00:55;6.63;;;2.17;;
46745;SDS011;32493;50.514;9.678;2023-12-28T02:03:04;3.53;;;1.83;;
46745;SDS011;32493;50.514;9.678;2023-12-28T02:05:12;5.40;;;1.85;;
46745;SDS011;32493;50.514;9.678;2023-12-28T02:07:18;3.65;;;2.05;;
46745;SDS011;32493;50.514;9.678;2023-12-28T02:09:26;6.35;;;2.65;;
46745;SDS011;32493;50.514;9.678;2023-12-28T02:11:31;5.47;;;2.47;;
46745;SDS011;32493;50.514;9.678;2023-12-28T02:13:38;3.67;;;2.42;;
46745;SDS011;32493;50.514;9.678;2023-12-28T02:15:48;4.95;;;2.40;;
46745;SDS011;32493;50.514;9.678;2023-12-28T02:18:05;6.43;;;2.40;;
46745;SDS011;32493;50.514;9.678;2023-12-28T02:20:18;4.13;;;1.92;;
46745;SDS011;32493;50.514;9.678;2023-12-28T02:22:28;3.95;;;2.10;;
46745;SDS011;32493;50.514;9.678;2023-12-28T02:27:16;3.30;;;2.22;;
46745;SDS011;32493;50.514;9.678;2023-12-28T02:29:19;3.33;;;2.03;;
46745;SDS011;32493;50.514;9.678;2023-12-28T02:31:26;5.57;;;2.50;;
46745;SDS011;32493;50.514;9.678;2023-12-28T02:33:38;4.43;;;2.35;;
46745;SDS011;32493;50.514;9.678;2023-12-28T02:35:54;4.10;;;2.38;;
46745;SDS011;32493;50.514;9.678;2023-12-28T02:38:02;5.50;;;2.30;;
46745;SDS011;32493;50.514;9.678;2023-12-28T02:40:15;5.00;;;2.03;;
46745;SDS011;32493;50.514;9.678;2023-12-28T02:42:19;5.78;;;2.28;;
46745;SDS011;32493;50.514;9.678;2023-12-28T02:44:25;4.53;;;2.10;;
46745;SDS011;32493;50.514;9.678;2023-12-28T02:46:35;3.70;;;2.25;;
46745;SDS011;32493;50.514;9.678;2023-12-28T02:48:44;4.05;;;2.15;;
46745;SDS011;32493;50.514;9.678;2023-12-28T02:51:04;3.97;;;2.28;;
46745;SDS011;32493;50.514;9.678;2023-12-28T02:53:16;4.57;;;2.53;;
46745;SDS011;32493;50.514;9.678;2023-12-28T02:55:24;8.32;;;2.70;;
46745;SDS011;32493;50.514;9.678;2023-12-28T02:57:29;5.07;;;2.72;;
46745;SDS011;32493;50.514;9.678;2023-12-28T02:59:39;7.78;;;2.58;;
46745;SDS011;32493;50.514;9.678;2023-12-28T03:01:42;5.88;;;2.75;;
46745;SDS011;32493;50.514;9.678;2023-12-28T03:04:01;4.88;;;2.42;;
46745;SDS011;32493;50.514;9.678;2023-12-28T03:06:13;4.53;;;2.35;;
46745;SDS011;32493;50.514;9.678;2023-12-28T03:08:19;4.22;;;2.47;;
46745;SDS011;32493;50.514;9.678;2023-12-28T03:10:28;4.70;;;2.63;;
46745;SDS011;32493;50.514;9.678;2023-12-28T03:12:34;5.65;;;2.47;;
46745;SDS011;32493;50.514;9.678;2023-12-28T03:14:40;4.55;;;2.40;;
46745;SDS011;32493;50.514;9.678;2023-12-28T03:16:51;4.10;;;2.95;;
46745;SDS011;32493;50.514;9.678;2023-12-28T03:18:58;6.38;;;2.90;;
46745;SDS011;32493;50.514;9.678;2023-12-28T03:21:05;4.57;;;2.85;;
46745;SDS011;32493;50.514;9.678;2023-12-28T03:23:13;4.75;;;2.40;;
46745;SDS011;32493;50.514;9.678;2023-12-28T03:25:19;3.55;;;2.35;;
46745;SDS011;32493;50.514;9.678;2023-12-28T03:27:27;5.07;;;2.53;;
46745;SDS011;32493;50.514;9.678;2023-12-28T03:29:33;4.75;;;2.45;;
46745;SDS011;32493;50.514;9.678;2023-12-28T03:31:39;3.47;;;2.38;;
46745;SDS011;32493;50.514;9.678;2023-12-28T03:33:48;4.30;;;2.58;;
46745;SDS011;32493;50.514;9.678;2023-12-28T03:35:56;5.22;;;2.65;;
46745;SDS011;32493;50.514;9.678;2023-12-28T03:38:03;5.18;;;2.90;;
46745;SDS011;32493;50.514;9.678;2023-12-28T03:40:10;8.25;;;2.60;;
46745;SDS011;32493;50.514;9.678;2023-12-28T03:42:20;4.93;;;2.25;;
46745;SDS011;32493;50.514;9.678;2023-12-28T03:44:29;6.03;;;3.15;;
46745;SDS011;32493;50.514;9.678;2023-12-28T03:46:34;6.65;;;2.97;;
46745;SDS011;32493;50.514;9.678;2023-12-28T03:48:37;7.72;;;2.90;;
46745;SDS011;32493;50.514;9.678;2023-12-28T03:50:47;6.30;;;2.88;;
46745;SDS011;32493;50.514;9.678;2023-12-28T03:53:01;7.30;;;3.42;;
46745;SDS011;32493;50.514;9.678;2023-12-28T03:55:07;4.07;;;2.25;;
46745;SDS011;32493;50.514;9.678;2023-12-28T03:57:12;7.47;;;2.95;;
46745;SDS011;32493;50.514;9.678;2023-12-28T03:59:20;5.55;;;3.55;;
46745;SDS011;32493;50.514;9.678;2023-12-28T04:01:43;5.25;;;2.97;;
46745;SDS011;32493;50.514;9.678;2023-12-28T04:03:51;5.50;;;2.80;;
46745;SDS011;32493;50.514;9.678;2023-12-28T04:05:56;7.15;;;3.05;;
46745;SDS011;32493;50.514;9.678;2023-12-28T04:08:02;5.95;;;3.17;;
46745;SDS011;32493;50.514;9.678;2023-12-28T04:10:06;7.13;;;2.90;;
46745;SDS011;32493;50.514;9.678;2023-12-28T04:12:13;5.97;;;2.63;;
46745;SDS011;32493;50.514;9.678;2023-12-28T04:14:29;7.25;;;3.05;;
46745;SDS011;32493;50.514;9.678;2023-12-28T04:16:35;5.78;;;2.85;;
46745;SDS011;32493;50.514;9.678;2023-12-28T04:18:45;6.65;;;3.17;;
46745;SDS011;32493;50.514;9.678;2023-12-28T04:20:58;4.78;;;2.30;;
46745;SDS011;32493;50.514;9.678;2023-12-28T04:23:08;5.28;;;3.22;;
46745;SDS011;32493;50.514;9.678;2023-12-28T04:25:14;4.80;;;2.55;;
46745;SDS011;32493;50.514;9.678;2023-12-28T04:27:20;8.93;;;3.67;;
46745;SDS011;32493;50.514;9.678;2023-12-28T04:29:25;5.70;;;3.60;;
46745;SDS011;32493;50.514;9.678;2023-12-28T04:31:31;8.90;;;4.07;;
46745;SDS011;32493;50.514;9.678;2023-12-28T04:33:50;4.80;;;2.78;;
46745;SDS011;32493;50.514;9.678;2023-12-28T04:36:00;4.47;;;2.95;;
46745;SDS011;32493;50.514;9.678;2023-12-28T04:38:08;2.90;;;2.28;;
46745;SDS011;32493;50.514;9.678;2023-12-28T04:40:16;5.70;;;2.50;;
46745;SDS011;32493;50.514;9.678;2023-12-28T04:42:23;5.53;;;3.35;;
46745;SDS011;32493;50.514;9.678;2023-12-28T04:44:29;6.03;;;3.63;;
46745;SDS011;32493;50.514;9.678;2023-12-28T04:46:37;7.35;;;3.35;;
46745;SDS011;32493;50.514;9.678;2023-12-28T04:48:46;4.70;;;2.80;;
46745;SDS011;32493;50.514;9.678;2023-12-28T04:50:56;5.00;;;2.95;;
46745;SDS011;32493;50.514;9.678;2023-12-28T04:53:16;4.25;;;2.40;;
46745;SDS011;32493;50.514;9.678;2023-12-28T04:55:22;5.38;;;2.97;;
46745;SDS011;32493;50.514;9.678;2023-12-28T04:57:29;6.47;;;3.30;;
46745;SDS011;32493;50.514;9.678;2023-12-28T04:59:37;5.32;;;2.83;;
46745;SDS011;32493;50.514;9.678;2023-12-28T05:01:47;4.90;;;3.10;;
46745;SDS011;32493;50.514;9.678;2023-12-28T05:03:54;4.38;;;2.67;;
46745;SDS011;32493;50.514;9.678;2023-12-28T05:06:04;4.82;;;2.10;;
46745;SDS011;32493;50.514;9.678;2023-12-28T05:08:11;6.95;;;3.03;;
46745;SDS011;32493;50.514;9.678;2023-12-28T05:10:17;4.45;;;2.60;;
46745;SDS011;32493;50.514;9.678;2023-12-28T05:12:23;5.70;;;3.22;;
46745;SDS011;32493;50.514;9.678;2023-12-28T05:14:44;7.07;;;2.72;;
46745;SDS011;32493;50.514;9.678;2023-12-28T05:16:50;7.38;;;2.72;;
46745;SDS011;32493;50.514;9.678;2023-12-28T05:18:56;6.35;;;3.40;;
46745;SDS011;32493;50.514;9.678;2023-12-28T05:21:07;6.13;;;2.78;;
46745;SDS011;32493;50.514;9.678;2023-12-28T05:23:16;4.60;;;2.35;;
46745;SDS011;32493;50.514;9.678;2023-12-28T05:25:21;4.05;;;2.00;;
46745;SDS011;32493;50.514;9.678;2023-12-28T05:27:27;4.30;;;2.53;;
46745;SDS011;32493;50.514;9.678;2023-12-28T05:29:32;4.45;;;2.75;;
46745;SDS011;32493;50.514;9.678;2023-12-28T05:31:43;3.92;;;2.55;;
46745;SDS011;32493;50.514;9.678;2023-12-28T05:33:54;7.07;;;3.10;;
46745;SDS011;32493;50.514;9.678;2023-12-28T05:36:00;7.95;;;2.92;;
46745;SDS011;32493;50.514;9.678;2023-12-28T05:38:08;7.57;;;3.55;;
46745;SDS011;32493;50.514;9.678;2023-12-28T05:40:13;5.95;;;3.00;;
46745;SDS011;32493;50.514;9.678;2023-12-28T05:42:19;4.68;;;2.25;;
46745;SDS011;32493;50.514;9.678;2023-12-28T05:44:25;5.40;;;2.63;;
46745;SDS011;32493;50.514;9.678;2023-12-28T05:46:36;7.25;;;3.33;;
46745;SDS011;32493;50.514;9.678;2023-12-28T05:48:41;8.93;;;3.40;;
46745;SDS011;32493;50.514;9.678;2023-12-28T05:50:51;6.63;;;3.20;;
46745;SDS011;32493;50.514;9.678;2023-12-28T05:52:56;4.72;;;3.20;;
46745;SDS011;32493;50.514;9.678;2023-12-28T05:55:05;5.45;;;3.20;;
46745;SDS011;32493;50.514;9.678;2023-12-28T05:57:11;5.68;;;3.55;;
46745;SDS011;32493;50.514;9.678;2023-12-28T05:59:15;7.40;;;3.00;;
46745;SDS011;32493;50.514;9.678;2023-12-28T06:01:23;5.32;;;3.22;;
46745;SDS011;32493;50.514;9.678;2023-12-28T06:03:31;5.32;;;3.28;;
46745;SDS011;32493;50.514;9.678;2023-12-28T06:05:51;7.38;;;3.45;;
46745;SDS011;32493;50.514;9.678;2023-12-28T06:07:54;5.82;;;3.60;;
46745;SDS011;32493;50.514;9.678;2023-12-28T06:10:01;5.40;;;3.22;;
46745;SDS011;32493;50.514;9.678;2023-12-28T06:12:21;11.30;;;3.92;;
46745;SDS011;32493;50.514;9.678;2023-12-28T06:14:27;8.32;;;3.72;;
46745;SDS011;32493;50.514;9.678;2023-12-28T06:16:34;5.10;;;2.95;;
46745;SDS011;32493;50.514;9.678;2023-12-28T06:18:39;6.47;;;3.40;;
46745;SDS011;32493;50.514;9.678;2023-12-28T06:20:48;5.90;;;3.20;;
46745;SDS011;32493;50.514;9.678;2023-12-28T06:24:58;5.20;;;2.90;;
46745;SDS011;32493;50.514;9.678;2023-12-28T06:27:04;5.75;;;3.50;;
46745;SDS011;32493;50.514;9.678;2023-12-28T06:29:10;7.20;;;3.72;;
46745;SDS011;32493;50.514;9.678;2023-12-28T06:31:18;7.55;;;3.40;;
46745;SDS011;32493;50.514;9.678;2023-12-28T06:33:42;7.88;;;3.60;;
46745;SDS011;32493;50.514;9.678;2023-12-28T06:35:48;4.88;;;3.03;;
46745;SDS011;32493;50.514;9.678;2023-12-28T06:37:52;5.10;;;3.35;;
46745;SDS011;32493;50.514;9.678;2023-12-28T06:40:01;5.90;;;3.53;;
46745;SDS011;32493;50.514;9.678;2023-12-28T06:42:13;5.82;;;3.58;;
46745;SDS011;32493;50.514;9.678;2023-12-28T06:44:19;9.80;;;3.70;;
46745;SDS011;32493;50.514;9.678;2023-12-28T06:46:25;6.63;;;3.42;;
46745;SDS011;32493;50.514;9.678;2023-12-28T06:48:30;6.43;;;3.60;;
46745;SDS011;32493;50.514;9.678;2023-12-28T06:50:33;5.72;;;3.10;;
46745;SDS011;32493;50.514;9.678;2023-12-28T06:52:50;8.10;;;3.70;;
46745;SDS011;32493;50.514;9.678;2023-12-28T06:55:03;6.65;;;3.58;;
46745;SDS011;32493;50.514;9.678;2023-12-28T06:57:09;5.50;;;3.15;;
46745;SDS011;32493;50.514;9.678;2023-12-28T06:59:18;6.25;;;3.22;;
46745;SDS011;32493;50.514;9.678;2023-12-28T07:01:21;6.18;;;3.42;;
46745;SDS011;32493;50.514;9.678;2023-12-28T07:03:26;6.22;;;3.53;;
46745;SDS011;32493;50.514;9.678;2023-12-28T07:05:34;5.28;;;3.45;;
46745;SDS011;32493;50.514;9.678;2023-12-28T07:07:55;5.97;;;3.55;;
46745;SDS011;32493;50.514;9.678;2023-12-28T07:10:04;7.85;;;3.50;;
46745;SDS011;32493;50.514;9.678;2023-12-28T07:12:16;7.07;;;3.92;;
46745;SDS011;32493;50.514;9.678;2023-12-28T07:14:22;5.03;;;3.33;;
46745;SDS011;32493;50.514;9.678;2023-12-28T07:16:28;7.65;;;3.67;;
46745;SDS011;32493;50.514;9.678;2023-12-28T07:18:33;4.88;;;3.35;;
46745;SDS011;32493;50.514;9.678;2023-12-28T07:20:41;7.68;;;3.50;;
46745;SDS011;32493;50.514;9.678;2023-12-28T07:22:58;5.63;;;3.00;;
46745;SDS011;32493;50.514;9.678;2023-12-28T07:25:04;5.28;;;3.47;;
46745;SDS011;32493;50.514;9.678;2023-12-28T07:27:10;8.43;;;3.78;;
46745;SDS011;32493;50.514;9.678;2023-12-28T07:29:26;6.05;;;3.10;;
46745;SDS011;32493;50.514;9.678;2023-12-28T07:31:34;7.65;;;3.20;;
46745;SDS011;32493;50.514;9.678;2023-12-28T07:33:40;6.72;;;2.53;;
46745;SDS011;32493;50.514;9.678;2023-12-28T07:35:46;5.38;;;3.03;;
46745;SDS011;32493;50.514;9.678;2023-12-28T07:37:51;4.40;;;2.63;;
46745;SDS011;32493;50.514;9.678;2023-12-28T07:39:57;6.45;;;3.10;;
46745;SDS011;32493;50.514;9.678;2023-12-28T07:42:19;6.38;;;2.60;;
46745;SDS011;32493;50.514;9.678;2023-12-28T07:44:27;6.03;;;2.80;;
46745;SDS011;32493;50.514;9.678;2023-12-28T07:46:32;7.68;;;3.33;;
46745;SDS011;32493;50.514;9.678;2023-12-28T07:48:38;6.20;;;3.17;;
46745;SDS011;32493;50.514;9.678;2023-12-28T07:50:47;5.80;;;2.88;;
46745;SDS011;32493;50.514;9.678;2023-12-28T07:53:14;6.78;;;3.10;;
46745;SDS011;32493;50.514;9.678;2023-12-28T07:55:20;5.93;;;2.67;;
46745;SDS011;32493;50.514;9.678;2023-12-28T07:57:27;3.80;;;2.05;;
46745;SDS011;32493;50.514;9.678;2023-12-28T07:59:33;9.65;;;3.05;;
46745;SDS011;32493;50.514;9.678;2023-12-28T08:01:39;5.43;;;2.70;;
46745;SDS011;32493;50.514;9.678;2023-12-28T08:03:47;3.55;;;2.00;;
46745;SDS011;32493;50.514;9.678;2023-12-28T08:06:11;6.55;;;4.05;;
46745;SDS011;32493;50.514;9.678;2023-12-28T08:08:17;4.07;;;2.55;;
46745;SDS011;32493;50.514;9.678;2023-12-28T08:10:23;4.95;;;2.50;;
46745;SDS011;32493;50.514;9.678;2023-12-28T08:12:29;5.07;;;2.50;;
46745;SDS011;32493;50.514;9.678;2023-12-28T08:14:38;4.13;;;2.60;;
46745;SDS011;32493;50.514;9.678;2023-12-28T08:16:49;3.60;;;2.38;;
46745;SDS011;32493;50.514;9.678;2023-12-28T08:18:56;4.32;;;2.58;;
46745;SDS011;32493;50.514;9.678;2023-12-28T08:21:14;3.28;;;2.15;;
46745;SDS011;32493;50.514;9.678;2023-12-28T08:23:21;4.05;;;2.22;;
46745;SDS011;32493;50.514;9.678;2023-12-28T08:25:27;4.15;;;1.98;;
46745;SDS011;32493;50.514;9.678;2023-12-28T08:27:32;3.20;;;1.88;;
46745;SDS011;32493;50.514;9.678;2023-12-28T08:29:45;5.40;;;2.08;;
46745;SDS011;32493;50.514;9.678;2023-12-28T08:32:03;4.00;;;1.90;;
46745;SDS011;32493;50.514;9.678;2023-12-28T08:34:09;3.60;;;1.85;;
46745;SDS011;32493;50.514;9.678;2023-12-28T08:36:15;3.88;;;2.33;;
46745;SDS011;32493;50.514;9.678;2023-12-28T08:38:19;3.72;;;1.77;;
46745;SDS011;32493;50.514;9.678;2023-12-28T08:40:27;3.03;;;2.00;;
46745;SDS011;32493;50.514;9.678;2023-12-28T08:42:43;4.53;;;1.95;;
46745;SDS011;32493;50.514;9.678;2023-12-28T08:44:51;3.85;;;2.08;;
46745;SDS011;32493;50.514;9.678;2023-12-28T08:46:56;3.20;;;1.65;;
46745;SDS011;32493;50.514;9.678;2023-12-28T08:49:03;2.33;;;2.10;;
46745;SDS011;32493;50.514;9.678;2023-12-28T08:51:14;2.47;;;1.50;;
46745;SDS011;32493;50.514;9.678;2023-12-28T08:53:26;2.95;;;1.90;;
46745;SDS011;32493;50.514;9.678;2023-12-28T08:55:29;3.45;;;1.98;;
46745;SDS011;32493;50.514;9.678;2023-12-28T08:57:35;6.47;;;2.05;;
46745;SDS011;32493;50.514;9.678;2023-12-28T08:59:48;5.20;;;2.00;;
46745;SDS011;32493;50.514;9.678;2023-12-28T09:02:03;3.30;;;1.90;;
46745;SDS011;32493;50.514;9.678;2023-12-28T09:04:10;3.15;;;1.98;;
46745;SDS011;32493;50.514;9.678;2023-12-28T09:06:15;3.42;;;1.50;;
46745;SDS011;32493;50.514;9.678;2023-12-28T09:08:21;3.15;;;1.98;;
46745;SDS011;32493;50.514;9.678;2023-12-28T09:10:27;3.10;;;1.95;;
46745;SDS011;32493;50.514;9.678;2023-12-28T09:12:55;2.65;;;1.73;;
46745;SDS011;32493;50.514;9.678;2023-12-28T09:15:05;5.15;;;1.90;;
46745;SDS011;32493;50.514;9.678;2023-12-28T09:17:11;3.42;;;2.03;;
46745;SDS011;32493;50.514;9.678;2023-12-28T09:19:17;4.20;;;1.92;;
46745;SDS011;32493;50.514;9.678;2023-12-28T09:21:28;4.70;;;2.10;;
46745;SDS011;32493;50.514;9.678;2023-12-28T09:23:43;4.13;;;1.80;;
46745;SDS011;32493;50.514;9.678;2023-12-28T09:25:49;3.65;;;1.92;;
46745;SDS011;32493;50.514;9.678;2023-12-28T09:27:55;4.07;;;1.55;;
46745;SDS011;32493;50.514;9.678;2023-12-28T09:30:08;4.50;;;2.00;;
46745;SDS011;32493;50.514;9.678;2023-12-28T09:32:17;3.92;;;1.77;;
46745;SDS011;32493;50.514;9.678;2023-12-28T09:34:21;4.40;;;1.70;;
46745;SDS011;32493;50.514;9.678;2023-12-28T09:36:26;4.50;;;1.63;;
46745;SDS011;32493;50.514;9.678;2023-12-28T09:38:34;3.22;;;1.83;;
46745;SDS011;32493;50.514;9.678;2023-12-28T09:40:45;4.50;;;2.08;;
46745;SDS011;32493;50.514;9.678;2023-12-28T09:43:01;4.75;;;2.30;;
46745;SDS011;32493;50.514;9.678;2023-12-28T09:45:30;7.43;;;1.88;;
46745;SDS011;32493;50.514;9.678;2023-12-28T09:47:36;4.88;;;1.67;;
46745;SDS011;32493;50.514;9.678;2023-12-28T09:49:43;4.32;;;1.73;;
46745;SDS011;32493;50.514;9.678;2023-12-28T09:51:52;5.05;;;1.98;;
46745;SDS011;32493;50.514;9.678;2023-12-28T09:53:55;3.42;;;1.80;;
46745;SDS011;32493;50.514;9.678;2023-12-28T09:56:02;3.85;;;1.58;;
46745;SDS011;32493;50.514;9.678;2023-12-28T09:58:11;5.95;;;1.88;;
46745;SDS011;32493;50.514;9.678;2023-12-28T10:00:21;3.33;;;1.77;;
46745;SDS011;32493;50.514;9.678;2023-12-28T10:02:29;6.28;;;2.30;;
46745;SDS011;32493;50.514;9.678;2023-12-28T10:04:40;3.90;;;1.50;;
46745;SDS011;32493;50.514;9.678;2023-12-28T10:06:53;3.85;;;1.70;;
46745;SDS011;32493;50.514;9.678;2023-12-28T10:08:59;3.75;;;1.75;;
46745;SDS011;32493;50.514;9.678;2023-12-28T10:11:07;4.47;;;1.98;;
46745;SDS011;32493;50.514;9.678;2023-12-28T10:13:19;4.15;;;1.60;;
46745;SDS011;32493;50.514;9.678;2023-12-28T10:15:25;2.67;;;1.38;;
46745;SDS011;32493;50.514;9.678;2023-12-28T10:17:34;3.33;;;1.88;;
46745;SDS011;32493;50.514;9.678;2023-12-28T10:19:44;5.00;;;1.80;;
46745;SDS011;32493;50.514;9.678;2023-12-28T10:22:03;3.88;;;1.50;;
46745;SDS011;32493;50.514;9.678;2023-12-28T10:24:13;8.45;;;1.45;;
46745;SDS011;32493;50.514;9.678;2023-12-28T10:26:19;3.15;;;1.00;;
46745;SDS011;32493;50.514;9.678;2023-12-28T10:28:25;4.72;;;1.90;;
46745;SDS011;32493;50.514;9.678;2023-12-28T10:30:31;3.53;;;1.40;;
46745;SDS011;32493;50.514;9.678;2023-12-28T10:32:41;4.03;;;1.80;;
46745;SDS011;32493;50.514;9.678;2023-12-28T10:34:47;2.53;;;1.10;;
46745;SDS011;32493;50.514;9.678;2023-12-28T10:36:58;2.22;;;1.17;;
46745;SDS011;32493;50.514;9.678;2023-12-28T10:39:10;2.17;;;1.13;;
46745;SDS011;32493;50.514;9.678;2023-12-28T10:41:23;4.18;;;1.33;;
46745;SDS011;32493;50.514;9.678;2023-12-28T10:43:39;3.30;;;2.00;;
46745;SDS011;32493;50.514;9.678;2023-12-28T10:45:56;4.22;;;1.92;;
46745;SDS011;32493;50.514;9.678;2023-12-28T10:48:07;3.10;;;1.60;;
46745;SDS011;32493;50.514;9.678;2023-12-28T10:50:14;3.47;;;1.70;;
46745;SDS011;32493;50.514;9.678;2023-12-28T10:52:19;5.15;;;1.70;;
46745;SDS011;32493;50.514;9.678;2023-12-28T10:54:33;2.30;;;1.33;;
46745;SDS011;32493;50.514;9.678;2023-12-28T10:56:49;3.53;;;1.45;;
46745;SDS011;32493;50.514;9.678;2023-12-28T10:59:04;2.40;;;1.30;;
46745;SDS011;32493;50.514;9.678;2023-12-28T11:01:24;1.95;;;1.17;;
46745;SDS011;32493;50.514;9.678;2023-12-28T11:03:42;1.90;;;1.00;;
46745;SDS011;32493;50.514;9.678;2023-12-28T11:06:00;2.08;;;0.75;;
46745;SDS011;32493;50.514;9.678;2023-12-28T11:08:06;3.58;;;1.48;;
46745;SDS011;32493;50.514;9.678;2023-12-28T11:10:17;3.95;;;1.40;;
46745;SDS011;32493;50.514;9.678;2023-12-28T11:12:30;6.13;;;1.45;;
46745;SDS011;32493;50.514;9.678;2023-12-28T11:14:38;1.88;;;0.90;;
46745;SDS011;32493;50.514;9.678;2023-12-28T11:16:45;3.92;;;1.80;;
46745;SDS011;32493;50.514;9.678;2023-12-28T11:18:54;3.15;;;1.25;;
46745;SDS011;32493;50.514;9.678;2023-12-28T11:21:06;2.58;;;1.48;;
46745;SDS011;32493;50.514;9.678;2023-12-28T11:23:15;2.80;;;1.20;;
46745;SDS011;32493;50.514;9.678;2023-12-28T11:25:32;4.25;;;1.60;;
46745;SDS011;32493;50.514;9.678;2023-12-28T11:27:38;4.05;;;1.70;;
46745;SDS011;32493;50.514;9.678;2023-12-28T11:29:47;3.30;;;1.25;;
46745;SDS011;32493;50.514;9.678;2023-12-28T11:31:56;3.20;;;1.42;;
46745;SDS011;32493;50.514;9.678;2023-12-28T11:34:06;2.08;;;1.10;;
46745;SDS011;32493;50.514;9.678;2023-12-28T11:36:19;4.60;;;1.50;;
46745;SDS011;32493;50.514;9.678;2023-12-28T11:38:27;4.57;;;1.40;;
46745;SDS011;32493;50.514;9.678;2023-12-28T11:40:36;2.83;;;1.85;;
46745;SDS011;32493;50.514;9.678;2023-12-28T11:42:49;5.15;;;2.03;;
46745;SDS011;32493;50.514;9.678;2023-12-28T11:44:55;4.97;;;1.75;;
46745;SDS011;32493;50.514;9.678;2023-12-28T11:46:58;3.92;;;1.60;;
46745;SDS011;32493;50.514;9.678;2023-12-28T11:49:24;2.35;;;1.20;;
46745;SDS011;32493;50.514;9.678;2023-12-28T11:51:31;3.90;;;1.48;;
46745;SDS011;32493;50.514;9.678;2023-12-28T11:53:35;2.40;;;1.17;;
46745;SDS011;32493;50.514;9.678;2023-12-28T11:55:41;4.95;;;1.85;;
46745;SDS011;32493;50.514;9.678;2023-12-28T11:57:49;6.03;;;1.83;;
46745;SDS011;32493;50.514;9.678;2023-12-28T11:59:58;2.63;;;1.42;;
46745;SDS011;32493;50.514;9.678;2023-12-28T12:02:10;1.75;;;1.30;;
46745;SDS011;32493;50.514;9.678;2023-12-28T12:04:19;3.47;;;1.23;;
46745;SDS011;32493;50.514;9.678;2023-12-28T12:06:25;4.28;;;0.80;;
46745;SDS011;32493;50.514;9.678;2023-12-28T12:08:31;1.58;;;1.15;;
46745;SDS011;32493;50.514;9.678;2023-12-28T12:10:34;3.17;;;1.30;;
46745;SDS011;32493;50.514;9.678;2023-12-28T12:12:44;2.92;;;1.40;;
46745;SDS011;32493;50.514;9.678;2023-12-28T12:14:59;2.40;;;1.13;;
46745;SDS011;32493;50.514;9.678;2023-12-28T12:17:05;1.88;;;0.73;;
46745;SDS011;32493;50.514;9.678;2023-12-28T12:19:10;6.10;;;1.95;;
46745;SDS011;32493;50.514;9.678;2023-12-28T12:21:19;2.55;;;1.50;;
46745;SDS011;32493;50.514;9.678;2023-12-28T12:23:24;1.63;;;1.10;;
46745;SDS011;32493;50.514;9.678;2023-12-28T12:25:28;5.28;;;1.40;;
46745;SDS011;32493;50.514;9.678;2023-12-28T12:27:34;2.20;;;1.38;;
46745;SDS011;32493;50.514;9.678;2023-12-28T12:29:47;3.75;;;1.60;;
46745;SDS011;32493;50.514;9.678;2023-12-28T12:31:53;4.78;;;2.28;;
46745;SDS011;32493;50.514;9.678;2023-12-28T12:34:01;4.25;;;1.80;;
46745;SDS011;32493;50.514;9.678;2023-12-28T12:36:07;5.32;;;1.45;;
46745;SDS011;32493;50.514;9.678;2023-12-28T12:38:15;4.93;;;1.65;;
46745;SDS011;32493;50.514;9.678;2023-12-28T12:40:21;3.28;;;1.50;;
46745;SDS011;32493;50.514;9.678;2023-12-28T12:42:35;3.42;;;1.33;;
46745;SDS011;32493;50.514;9.678;2023-12-28T12:44:39;3.78;;;1.00;;
46745;SDS011;32493;50.514;9.678;2023-12-28T12:46:45;3.08;;;1.55;;
46745;SDS011;32493;50.514;9.678;2023-12-28T12:48:54;4.53;;;1.75;;
46745;SDS011;32493;50.514;9.678;2023-12-28T12:51:02;4.88;;;1.40;;
46745;SDS011;32493;50.514;9.678;2023-12-28T12:53:18;4.68;;;1.42;;
46745;SDS011;32493;50.514;9.678;2023-12-28T12:55:24;3.03;;;1.25;;
46745;SDS011;32493;50.514;9.678;2023-12-28T12:57:27;6.32;;;1.70;;
46745;SDS011;32493;50.514;9.678;2023-12-28T12:59:34;2.13;;;1.15;;
46745;SDS011;32493;50.514;9.678;2023-12-28T13:01:40;3.40;;;1.40;;
46745;SDS011;32493;50.514;9.678;2023-12-28T13:03:47;3.42;;;1.40;;